sensor_id;sensor_type;location;lat;lon;timestamp;temperature;humidity
30206;DHT22;17010;51.306;3.150;2023-04-01T00:01:42;9.30;99.90
30206;DHT22;17010;51.306;3.150;2023-04-01T00:04:08;9.30;99.90
30206;DHT22;17010;51.306;3.150;2023-04-01T00:06:34;9.20;99.90
30206;DHT22;17010;51.306;3.150;2023-04-01T00:09:00;9.20;99.90
30206;DHT22;17010;51.306;3.150;2023-04-01T00:11:27;9.20;99.90
30206;DHT22;17010;51.306;3.150;2023-04-01T00:13:53;9.20;99.90
30206;DHT22;17010;51.306;3.150;2023-04-01T00:16:20;9.20;99.90
30206;DHT22;17010;51.306;3.150;2023-04-01T00:18:47;9.20;99.90
30206;DHT22;17010;51.306;3.150;2023-04-01T00:21:13;9.20;99.90
30206;DHT22;17010;51.306;3.150;2023-04-01T00:23:39;9.20;99.90
30206;DHT22;17010;51.306;3.150;2023-04-01T00:26:06;9.10;99.90
30206;DHT22;17010;51.306;3.150;2023-04-01T00:28:33;9.10;99.90
30206;DHT22;17010;51.306;3.150;2023-04-01T00:31:04;9.10;99.90
30206;DHT22;17010;51.306;3.150;2023-04-01T00:33:30;9.10;99.90
30206;DHT22;17010;51.306;3.150;2023-04-01T00:36:18;9.10;99.90
30206;DHT22;17010;51.306;3.150;2023-04-01T00:38:45;9.10;99.90
30206;DHT22;17010;51.306;3.150;2023-04-01T00:41:14;9.00;99.90
30206;DHT22;17010;51.306;3.150;2023-04-01T00:43:42;9.10;99.90
30206;DHT22;17010;51.306;3.150;2023-04-01T00:46:09;9.10;99.90
30206;DHT22;17010;51.306;3.150;2023-04-01T00:48:38;9.10;99.90
30206;DHT22;17010;51.306;3.150;2023-04-01T00:51:06;9.00;99.90
30206;DHT22;17010;51.306;3.150;2023-04-01T00:53:34;9.00;99.90
30206;DHT22;17010;51.306;3.150;2023-04-01T00:56:10;9.00;99.90
30206;DHT22;17010;51.306;3.150;2023-04-01T00:58:40;9.00;99.90
30206;DHT22;17010;51.306;3.150;2023-04-01T01:01:07;9.00;99.90
30206;DHT22;17010;51.306;3.150;2023-04-01T01:03:34;9.00;99.90
30206;DHT22;17010;51.306;3.150;2023-04-01T01:06:37;9.00;99.90
30206;DHT22;17010;51.306;3.150;2023-04-01T01:25:57;9.00;99.90
30206;DHT22;17010;51.306;3.150;2023-04-01T01:32:18;9.00;99.90
30206;DHT22;17010;51.306;3.150;2023-04-01T01:37:12;8.90;99.90
30206;DHT22;17010;51.306;3.150;2023-04-01T01:39:39;8.90;99.90
30206;DHT22;17010;51.306;3.150;2023-04-01T01:42:08;8.90;99.90
30206;DHT22;17010;51.306;3.150;2023-04-01T01:44:36;8.90;99.90
30206;DHT22;17010;51.306;3.150;2023-04-01T01:47:03;8.90;99.90
30206;DHT22;17010;51.306;3.150;2023-04-01T01:49:29;8.90;99.90
30206;DHT22;17010;51.306;3.150;2023-04-01T01:51:58;8.90;99.90
30206;DHT22;17010;51.306;3.150;2023-04-01T01:54:24;8.90;99.90
30206;DHT22;17010;51.306;3.150;2023-04-01T01:56:52;8.90;99.90
30206;DHT22;17010;51.306;3.150;2023-04-01T01:59:21;8.90;99.90
30206;DHT22;17010;51.306;3.150;2023-04-01T02:01:51;8.80;99.90
30206;DHT22;17010;51.306;3.150;2023-04-01T02:04:19;8.80;99.90
30206;DHT22;17010;51.306;3.150;2023-04-01T02:06:50;8.80;99.90
30206;DHT22;17010;51.306;3.150;2023-04-01T02:09:18;8.80;99.90
30206;DHT22;17010;51.306;3.150;2023-04-01T02:11:53;8.90;99.90
30206;DHT22;17010;51.306;3.150;2023-04-01T02:14:25;8.90;99.90
30206;DHT22;17010;51.306;3.150;2023-04-01T02:19:29;8.90;99.90
30206;DHT22;17010;51.306;3.150;2023-04-01T02:21:58;8.90;99.90
30206;DHT22;17010;51.306;3.150;2023-04-01T02:24:26;8.90;99.90
30206;DHT22;17010;51.306;3.150;2023-04-01T02:26:54;8.90;99.90
30206;DHT22;17010;51.306;3.150;2023-04-01T02:29:23;8.90;99.90
30206;DHT22;17010;51.306;3.150;2023-04-01T02:31:51;8.80;99.90
30206;DHT22;17010;51.306;3.150;2023-04-01T02:34:19;8.80;99.90
30206;DHT22;17010;51.306;3.150;2023-04-01T02:36:45;8.80;99.90
30206;DHT22;17010;51.306;3.150;2023-04-01T02:39:13;8.80;99.90
30206;DHT22;17010;51.306;3.150;2023-04-01T02:41:41;8.80;99.90
30206;DHT22;17010;51.306;3.150;2023-04-01T02:44:07;8.80;99.90
30206;DHT22;17010;51.306;3.150;2023-04-01T02:46:34;8.80;99.90
30206;DHT22;17010;51.306;3.150;2023-04-01T02:49:00;8.80;99.90
30206;DHT22;17010;51.306;3.150;2023-04-01T02:51:26;8.80;99.90
30206;DHT22;17010;51.306;3.150;2023-04-01T02:53:52;8.80;99.90
30206;DHT22;17010;51.306;3.150;2023-04-01T02:56:18;8.80;99.90
30206;DHT22;17010;51.306;3.150;2023-04-01T02:58:46;8.80;99.90
30206;DHT22;17010;51.306;3.150;2023-04-01T03:01:12;8.80;99.90
30206;DHT22;17010;51.306;3.150;2023-04-01T03:03:38;8.80;99.90
30206;DHT22;17010;51.306;3.150;2023-04-01T03:06:06;8.80;99.90
30206;DHT22;17010;51.306;3.150;2023-04-01T03:08:33;8.70;99.90
30206;DHT22;17010;51.306;3.150;2023-04-01T03:10:59;8.80;99.90
30206;DHT22;17010;51.306;3.150;2023-04-01T03:13:25;8.80;99.90
30206;DHT22;17010;51.306;3.150;2023-04-01T03:15:52;8.80;99.90
30206;DHT22;17010;51.306;3.150;2023-04-01T03:18:19;8.80;99.90
30206;DHT22;17010;51.306;3.150;2023-04-01T03:20:45;8.80;99.90
30206;DHT22;17010;51.306;3.150;2023-04-01T03:23:12;8.80;99.90
30206;DHT22;17010;51.306;3.150;2023-04-01T03:25:38;8.80;99.90
30206;DHT22;17010;51.306;3.150;2023-04-01T03:28:05;8.80;99.90
30206;DHT22;17010;51.306;3.150;2023-04-01T03:30:31;8.70;99.90
30206;DHT22;17010;51.306;3.150;2023-04-01T03:32:57;8.70;99.90
30206;DHT22;17010;51.306;3.150;2023-04-01T03:35:25;8.70;99.90
30206;DHT22;17010;51.306;3.150;2023-04-01T03:37:52;8.70;99.90
30206;DHT22;17010;51.306;3.150;2023-04-01T03:40:20;8.70;99.90
30206;DHT22;17010;51.306;3.150;2023-04-01T03:42:47;8.70;99.90
30206;DHT22;17010;51.306;3.150;2023-04-01T03:45:13;8.70;99.90
30206;DHT22;17010;51.306;3.150;2023-04-01T03:47:39;8.70;99.90
30206;DHT22;17010;51.306;3.150;2023-04-01T03:50:06;8.60;99.90
30206;DHT22;17010;51.306;3.150;2023-04-01T03:52:33;8.60;99.90
30206;DHT22;17010;51.306;3.150;2023-04-01T03:55:01;8.70;99.90
30206;DHT22;17010;51.306;3.150;2023-04-01T03:57:27;8.70;99.90
30206;DHT22;17010;51.306;3.150;2023-04-01T03:59:53;8.70;99.90
30206;DHT22;17010;51.306;3.150;2023-04-01T04:02:20;8.70;99.90
30206;DHT22;17010;51.306;3.150;2023-04-01T04:04:46;8.70;99.90
30206;DHT22;17010;51.306;3.150;2023-04-01T04:07:13;8.70;99.90
30206;DHT22;17010;51.306;3.150;2023-04-01T04:09:39;8.70;99.90
30206;DHT22;17010;51.306;3.150;2023-04-01T04:12:06;8.70;99.90
30206;DHT22;17010;51.306;3.150;2023-04-01T04:14:32;8.70;99.90
30206;DHT22;17010;51.306;3.150;2023-04-01T04:16:58;8.70;99.90
30206;DHT22;17010;51.306;3.150;2023-04-01T04:19:24;8.70;99.90
30206;DHT22;17010;51.306;3.150;2023-04-01T04:21:50;8.70;99.90
30206;DHT22;17010;51.306;3.150;2023-04-01T04:24:17;8.60;99.90
30206;DHT22;17010;51.306;3.150;2023-04-01T04:26:43;8.60;99.90
30206;DHT22;17010;51.306;3.150;2023-04-01T04:29:09;8.60;99.90
30206;DHT22;17010;51.306;3.150;2023-04-01T04:31:36;8.60;99.90
30206;DHT22;17010;51.306;3.150;2023-04-01T04:34:02;8.60;99.90
30206;DHT22;17010;51.306;3.150;2023-04-01T04:36:28;8.60;99.90
30206;DHT22;17010;51.306;3.150;2023-04-01T04:38:54;8.60;99.90
30206;DHT22;17010;51.306;3.150;2023-04-01T04:41:21;8.60;99.90
30206;DHT22;17010;51.306;3.150;2023-04-01T04:43:53;8.60;99.90
30206;DHT22;17010;51.306;3.150;2023-04-01T04:46:19;8.60;99.90
30206;DHT22;17010;51.306;3.150;2023-04-01T04:48:46;8.60;99.90
30206;DHT22;17010;51.306;3.150;2023-04-01T04:51:14;8.60;99.90
30206;DHT22;17010;51.306;3.150;2023-04-01T04:53:41;8.50;99.90
30206;DHT22;17010;51.306;3.150;2023-04-01T04:56:08;8.50;99.90
30206;DHT22;17010;51.306;3.150;2023-04-01T04:58:35;8.50;99.90
30206;DHT22;17010;51.306;3.150;2023-04-01T05:01:09;8.50;99.90
30206;DHT22;17010;51.306;3.150;2023-04-01T05:03:36;8.50;99.90
30206;DHT22;17010;51.306;3.150;2023-04-01T05:06:03;8.40;99.90
30206;DHT22;17010;51.306;3.150;2023-04-01T05:08:29;8.50;99.90
30206;DHT22;17010;51.306;3.150;2023-04-01T05:10:56;8.50;99.90
30206;DHT22;17010;51.306;3.150;2023-04-01T05:13:22;8.50;99.90
30206;DHT22;17010;51.306;3.150;2023-04-01T05:15:48;8.50;99.90
30206;DHT22;17010;51.306;3.150;2023-04-01T05:18:14;8.50;99.90
30206;DHT22;17010;51.306;3.150;2023-04-01T05:20:49;8.40;99.90
30206;DHT22;17010;51.306;3.150;2023-04-01T05:23:16;8.40;99.90
30206;DHT22;17010;51.306;3.150;2023-04-01T05:25:43;8.40;99.90
30206;DHT22;17010;51.306;3.150;2023-04-01T05:28:11;8.40;99.90
30206;DHT22;17010;51.306;3.150;2023-04-01T05:30:40;8.40;99.90
30206;DHT22;17010;51.306;3.150;2023-04-01T05:33:07;8.40;99.90
30206;DHT22;17010;51.306;3.150;2023-04-01T05:35:33;8.40;99.90
30206;DHT22;17010;51.306;3.150;2023-04-01T05:37:59;8.40;99.90
30206;DHT22;17010;51.306;3.150;2023-04-01T05:40:25;8.40;99.90
30206;DHT22;17010;51.306;3.150;2023-04-01T05:42:51;8.40;99.90
30206;DHT22;17010;51.306;3.150;2023-04-01T05:45:18;8.40;99.90
30206;DHT22;17010;51.306;3.150;2023-04-01T05:47:44;8.40;99.90
30206;DHT22;17010;51.306;3.150;2023-04-01T05:50:10;8.40;99.90
30206;DHT22;17010;51.306;3.150;2023-04-01T05:52:38;8.40;99.90
30206;DHT22;17010;51.306;3.150;2023-04-01T05:55:05;8.40;99.90
30206;DHT22;17010;51.306;3.150;2023-04-01T05:57:31;8.40;99.90
30206;DHT22;17010;51.306;3.150;2023-04-01T05:59:57;8.40;99.90
30206;DHT22;17010;51.306;3.150;2023-04-01T06:02:24;8.40;99.90
30206;DHT22;17010;51.306;3.150;2023-04-01T06:04:53;8.40;99.90
30206;DHT22;17010;51.306;3.150;2023-04-01T06:07:20;8.40;99.90
30206;DHT22;17010;51.306;3.150;2023-04-01T06:09:47;8.40;99.90
30206;DHT22;17010;51.306;3.150;2023-04-01T06:15:10;8.40;99.90
30206;DHT22;17010;51.306;3.150;2023-04-01T06:17:52;8.40;99.90
30206;DHT22;17010;51.306;3.150;2023-04-01T06:20:57;8.40;99.90
30206;DHT22;17010;51.306;3.150;2023-04-01T06:26:03;8.40;99.90
30206;DHT22;17010;51.306;3.150;2023-04-01T06:28:52;8.30;99.90
30206;DHT22;17010;51.306;3.150;2023-04-01T06:34:35;8.40;99.90
30206;DHT22;17010;51.306;3.150;2023-04-01T06:50:44;8.30;99.90
30206;DHT22;17010;51.306;3.150;2023-04-01T06:58:46;8.30;99.90
30206;DHT22;17010;51.306;3.150;2023-04-01T07:01:28;8.30;99.90
30206;DHT22;17010;51.306;3.150;2023-04-01T07:03:57;8.30;99.90
30206;DHT22;17010;51.306;3.150;2023-04-01T07:06:36;8.30;99.90
30206;DHT22;17010;51.306;3.150;2023-04-01T07:09:06;8.30;99.90
30206;DHT22;17010;51.306;3.150;2023-04-01T07:11:35;8.30;99.90
30206;DHT22;17010;51.306;3.150;2023-04-01T07:14:06;8.30;99.90
30206;DHT22;17010;51.306;3.150;2023-04-01T07:17:01;8.40;99.90
30206;DHT22;17010;51.306;3.150;2023-04-01T07:19:36;8.40;99.90
30206;DHT22;17010;51.306;3.150;2023-04-01T07:24:42;8.40;99.90
30206;DHT22;17010;51.306;3.150;2023-04-01T07:27:11;8.30;99.90
30206;DHT22;17010;51.306;3.150;2023-04-01T07:29:38;8.40;99.90
30206;DHT22;17010;51.306;3.150;2023-04-01T07:32:09;8.40;99.90
30206;DHT22;17010;51.306;3.150;2023-04-01T07:37:28;8.40;99.90
30206;DHT22;17010;51.306;3.150;2023-04-01T07:52:15;8.60;99.90
30206;DHT22;17010;51.306;3.150;2023-04-01T08:08:28;8.60;99.90
30206;DHT22;17010;51.306;3.150;2023-04-01T08:10:45;8.60;99.90
30206;DHT22;17010;51.306;3.150;2023-04-01T08:18:59;8.70;99.90
30206;DHT22;17010;51.306;3.150;2023-04-01T08:21:30;8.60;99.90
30206;DHT22;17010;51.306;3.150;2023-04-01T08:23:59;8.60;99.90
30206;DHT22;17010;51.306;3.150;2023-04-01T08:26:38;8.60;99.90
30206;DHT22;17010;51.306;3.150;2023-04-01T08:30:14;8.70;99.90
30206;DHT22;17010;51.306;3.150;2023-04-01T08:32:18;8.70;99.90
30206;DHT22;17010;51.306;3.150;2023-04-01T08:34:47;8.70;99.90
30206;DHT22;17010;51.306;3.150;2023-04-01T08:37:22;8.60;99.90
30206;DHT22;17010;51.306;3.150;2023-04-01T08:39:52;8.60;99.90
30206;DHT22;17010;51.306;3.150;2023-04-01T08:42:31;8.70;99.90
30206;DHT22;17010;51.306;3.150;2023-04-01T08:59:14;8.80;99.90
30206;DHT22;17010;51.306;3.150;2023-04-01T09:02:04;8.80;99.90
30206;DHT22;17010;51.306;3.150;2023-04-01T09:05:11;8.80;99.90
30206;DHT22;17010;51.306;3.150;2023-04-01T09:11:08;8.80;99.90
30206;DHT22;17010;51.306;3.150;2023-04-01T09:13:56;8.80;99.90
30206;DHT22;17010;51.306;3.150;2023-04-01T09:22:18;8.70;99.90
30206;DHT22;17010;51.306;3.150;2023-04-01T09:25:26;8.80;99.90
30206;DHT22;17010;51.306;3.150;2023-04-01T09:31:16;8.70;99.90
30206;DHT22;17010;51.306;3.150;2023-04-01T09:36:46;8.70;99.90
30206;DHT22;17010;51.306;3.150;2023-04-01T09:44:40;8.80;99.90
30206;DHT22;17010;51.306;3.150;2023-04-01T09:50:23;8.70;99.90
30206;DHT22;17010;51.306;3.150;2023-04-01T10:24:58;8.90;99.90
30206;DHT22;17010;51.306;3.150;2023-04-01T10:35:53;9.10;99.90
30206;DHT22;17010;51.306;3.150;2023-04-01T10:41:58;9.00;99.90
30206;DHT22;17010;51.306;3.150;2023-04-01T10:50:25;9.20;99.90
30206;DHT22;17010;51.306;3.150;2023-04-01T10:55:57;9.30;99.90
30206;DHT22;17010;51.306;3.150;2023-04-01T11:29:36;9.50;99.90
30206;DHT22;17010;51.306;3.150;2023-04-01T11:35:18;9.40;99.90
30206;DHT22;17010;51.306;3.150;2023-04-01T11:49:42;9.10;99.90
30206;DHT22;17010;51.306;3.150;2023-04-01T11:58:27;9.20;99.90
30206;DHT22;17010;51.306;3.150;2023-04-01T12:01:32;9.20;99.90
30206;DHT22;17010;51.306;3.150;2023-04-01T12:09:30;9.20;99.90
30206;DHT22;17010;51.306;3.150;2023-04-01T12:17:30;9.20;99.90
30206;DHT22;17010;51.306;3.150;2023-04-01T12:22:51;9.10;99.90
30206;DHT22;17010;51.306;3.150;2023-04-01T12:33:45;9.20;99.90
30206;DHT22;17010;51.306;3.150;2023-04-01T12:55:41;8.90;99.90
30206;DHT22;17010;51.306;3.150;2023-04-01T13:06:29;8.80;99.90
30206;DHT22;17010;51.306;3.150;2023-04-01T13:09:07;8.80;99.90
30206;DHT22;17010;51.306;3.150;2023-04-01T13:12:01;8.80;99.90
30206;DHT22;17010;51.306;3.150;2023-04-01T13:17:22;8.80;99.90
30206;DHT22;17010;51.306;3.150;2023-04-01T13:19:58;8.70;99.90
30206;DHT22;17010;51.306;3.150;2023-04-01T13:28:16;8.70;99.90
30206;DHT22;17010;51.306;3.150;2023-04-01T13:30:49;8.70;99.90
30206;DHT22;17010;51.306;3.150;2023-04-01T13:36:16;8.80;99.90
30206;DHT22;17010;51.306;3.150;2023-04-01T13:38:57;8.70;99.90
30206;DHT22;17010;51.306;3.150;2023-04-01T13:44:23;8.70;99.90
30206;DHT22;17010;51.306;3.150;2023-04-01T14:06:19;8.70;99.90
30206;DHT22;17010;51.306;3.150;2023-04-01T14:15:02;8.70;99.90
30206;DHT22;17010;51.306;3.150;2023-04-01T14:21:05;8.80;99.90
30206;DHT22;17010;51.306;3.150;2023-04-01T14:23:53;8.80;99.90
30206;DHT22;17010;51.306;3.150;2023-04-01T14:29:02;8.80;99.90
30206;DHT22;17010;51.306;3.150;2023-04-01T14:43:22;8.90;99.90
30206;DHT22;17010;51.306;3.150;2023-04-01T14:48:52;8.80;99.90
30206;DHT22;17010;51.306;3.150;2023-04-01T14:51:33;8.90;99.90
30206;DHT22;17010;51.306;3.150;2023-04-01T14:56:43;8.80;99.90
30206;DHT22;17010;51.306;3.150;2023-04-01T15:05:08;8.70;99.90
30206;DHT22;17010;51.306;3.150;2023-04-01T15:07:59;8.70;99.90
30206;DHT22;17010;51.306;3.150;2023-04-01T15:22:15;8.60;99.90
30206;DHT22;17010;51.306;3.150;2023-04-01T15:25:05;8.60;99.90
30206;DHT22;17010;51.306;3.150;2023-04-01T15:28:04;8.60;99.90
30206;DHT22;17010;51.306;3.150;2023-04-01T15:48:46;8.60;99.90
30206;DHT22;17010;51.306;3.150;2023-04-01T15:57:26;8.60;99.90
30206;DHT22;17010;51.306;3.150;2023-04-01T16:11:41;8.70;99.90
30206;DHT22;17010;51.306;3.150;2023-04-01T16:14:47;8.60;99.90
30206;DHT22;17010;51.306;3.150;2023-04-01T16:22:32;8.60;99.90
30206;DHT22;17010;51.306;3.150;2023-04-01T16:27:58;8.60;99.90
30206;DHT22;17010;51.306;3.150;2023-04-01T16:30:37;8.60;99.90
30206;DHT22;17010;51.306;3.150;2023-04-01T16:35:47;8.60;99.90
30206;DHT22;17010;51.306;3.150;2023-04-01T16:38:24;8.60;99.90
30206;DHT22;17010;51.306;3.150;2023-04-01T16:41:10;8.60;99.90
30206;DHT22;17010;51.306;3.150;2023-04-01T16:43:41;8.60;99.90
30206;DHT22;17010;51.306;3.150;2023-04-01T16:46:39;8.60;99.90
30206;DHT22;17010;51.306;3.150;2023-04-01T16:54:35;8.70;99.90
30206;DHT22;17010;51.306;3.150;2023-04-01T17:05:48;8.60;99.90
30206;DHT22;17010;51.306;3.150;2023-04-01T17:11:28;8.60;99.90
30206;DHT22;17010;51.306;3.150;2023-04-01T17:17:11;8.50;99.90
30206;DHT22;17010;51.306;3.150;2023-04-01T17:22:47;8.40;99.90
